sensor_id;sensor_type;location;lat;lon;timestamp;pressure;altitude;pressure_sealevel;temperature;humidity
20350;BME280;10332;50.208;18.988;2023-05-09T00:01:50;99036.59;;;6.74;80.08
20350;BME280;10332;50.208;18.988;2023-05-09T00:04:17;99040.06;;;6.74;80.07
20350;BME280;10332;50.208;18.988;2023-05-09T00:06:44;99040.09;;;6.73;80.28
20350;BME280;10332;50.208;18.988;2023-05-09T00:09:12;99043.78;;;6.67;80.35
20350;BME280;10332;50.208;18.988;2023-05-09T00:11:40;99039.66;;;6.62;80.57
20350;BME280;10332;50.208;18.988;2023-05-09T00:14:07;99044.78;;;6.63;80.48
20350;BME280;10332;50.208;18.988;2023-05-09T00:16:35;99034.47;;;6.62;80.59
20350;BME280;10332;50.208;18.988;2023-05-09T00:19:03;99030.31;;;6.58;80.95
20350;BME280;10332;50.208;18.988;2023-05-09T00:21:31;99039.72;;;6.60;80.91
20350;BME280;10332;50.208;18.988;2023-05-09T00:24:00;99033.81;;;6.57;81.00
20350;BME280;10332;50.208;18.988;2023-05-09T00:26:28;99040.78;;;6.54;80.83
20350;BME280;10332;50.208;18.988;2023-05-09T00:28:55;99029.28;;;6.62;80.76
20350;BME280;10332;50.208;18.988;2023-05-09T00:31:22;99026.56;;;6.65;80.63
20350;BME280;10332;50.208;18.988;2023-05-09T00:33:50;99024.38;;;6.54;80.95
20350;BME280;10332;50.208;18.988;2023-05-09T00:36:17;99021.06;;;6.50;80.86
20350;BME280;10332;50.208;18.988;2023-05-09T00:38:44;99016.84;;;6.48;81.05
20350;BME280;10332;50.208;18.988;2023-05-09T00:41:12;99017.13;;;6.40;81.34
20350;BME280;10332;50.208;18.988;2023-05-09T00:43:39;99011.22;;;6.35;81.74
20350;BME280;10332;50.208;18.988;2023-05-09T00:46:07;99016.47;;;6.34;81.96
20350;BME280;10332;50.208;18.988;2023-05-09T00:48:35;99008.91;;;6.28;82.21
20350;BME280;10332;50.208;18.988;2023-05-09T00:51:02;99006.59;;;6.20;82.72
20350;BME280;10332;50.208;18.988;2023-05-09T00:53:31;99009.41;;;6.14;82.82
20350;BME280;10332;50.208;18.988;2023-05-09T00:55:59;99009.41;;;6.14;83.05
20350;BME280;10332;50.208;18.988;2023-05-09T00:58:28;99003.41;;;6.13;83.17
20350;BME280;10332;50.208;18.988;2023-05-09T01:00:56;99007.09;;;6.06;83.16
20350;BME280;10332;50.208;18.988;2023-05-09T01:03:23;99006.31;;;6.04;83.31
20350;BME280;10332;50.208;18.988;2023-05-09T01:06:03;99000.16;;;6.07;83.28
20350;BME280;10332;50.208;18.988;2023-05-09T01:09:01;98989.09;;;6.02;83.42
20350;BME280;10332;50.208;18.988;2023-05-09T01:12:31;98993.63;;;5.96;83.88
20350;BME280;10332;50.208;18.988;2023-05-09T01:14:53;98984.50;;;5.85;84.33
20350;BME280;10332;50.208;18.988;2023-05-09T01:18:02;98996.88;;;5.77;84.74
20350;BME280;10332;50.208;18.988;2023-05-09T01:20:52;98988.78;;;5.86;84.56
20350;BME280;10332;50.208;18.988;2023-05-09T01:26:44;99001.69;;;5.87;84.10
20350;BME280;10332;50.208;18.988;2023-05-09T01:29:36;98998.19;;;5.88;84.24
20350;BME280;10332;50.208;18.988;2023-05-09T01:32:11;98996.50;;;5.87;84.25
20350;BME280;10332;50.208;18.988;2023-05-09T01:34:43;98986.19;;;5.86;84.35
20350;BME280;10332;50.208;18.988;2023-05-09T01:37:14;98989.69;;;5.85;84.29
20350;BME280;10332;50.208;18.988;2023-05-09T01:39:47;98990.34;;;5.90;83.80
20350;BME280;10332;50.208;18.988;2023-05-09T01:42:21;98992.22;;;5.86;84.28
20350;BME280;10332;50.208;18.988;2023-05-09T01:44:50;98992.81;;;5.94;83.89
20350;BME280;10332;50.208;18.988;2023-05-09T01:47:19;98989.34;;;5.95;83.60
20350;BME280;10332;50.208;18.988;2023-05-09T01:49:48;98989.97;;;6.02;83.17
20350;BME280;10332;50.208;18.988;2023-05-09T01:52:18;98980.66;;;5.96;83.47
20350;BME280;10332;50.208;18.988;2023-05-09T01:54:48;98983.31;;;5.95;83.36
20350;BME280;10332;50.208;18.988;2023-05-09T01:57:18;98982.47;;;5.94;83.28
20350;BME280;10332;50.208;18.988;2023-05-09T01:59:48;98973.31;;;5.83;83.53
20350;BME280;10332;50.208;18.988;2023-05-09T02:02:17;98980.84;;;5.90;83.67
20350;BME280;10332;50.208;18.988;2023-05-09T02:04:46;98983.69;;;5.83;84.03
20350;BME280;10332;50.208;18.988;2023-05-09T02:07:15;98976.09;;;5.78;84.03
20350;BME280;10332;50.208;18.988;2023-05-09T02:09:44;98979.66;;;5.74;84.27
20350;BME280;10332;50.208;18.988;2023-05-09T02:12:12;98973.31;;;5.83;83.80
20350;BME280;10332;50.208;18.988;2023-05-09T02:14:40;98975.75;;;5.87;83.46
20350;BME280;10332;50.208;18.988;2023-05-09T02:17:07;98974.91;;;5.87;83.56
20350;BME280;10332;50.208;18.988;2023-05-09T02:19:36;98974.06;;;5.86;83.67
20350;BME280;10332;50.208;18.988;2023-05-09T02:22:03;98970.72;;;5.83;83.73
20350;BME280;10332;50.208;18.988;2023-05-09T02:24:32;98973.38;;;5.81;83.72
20350;BME280;10332;50.208;18.988;2023-05-09T02:27:04;98968.00;;;5.87;83.48
20350;BME280;10332;50.208;18.988;2023-05-09T02:29:47;98974.63;;;5.96;82.88
20350;BME280;10332;50.208;18.988;2023-05-09T02:32:30;98965.25;;;5.92;82.78
20350;BME280;10332;50.208;18.988;2023-05-09T02:35:00;98966.16;;;5.91;82.80
20350;BME280;10332;50.208;18.988;2023-05-09T02:37:28;98962.75;;;5.89;82.87
20350;BME280;10332;50.208;18.988;2023-05-09T02:39:57;98965.78;;;5.77;83.09
20350;BME280;10332;50.208;18.988;2023-05-09T02:42:25;98967.25;;;5.59;84.08
20350;BME280;10332;50.208;18.988;2023-05-09T02:44:54;98957.16;;;5.51;84.67
20350;BME280;10332;50.208;18.988;2023-05-09T02:47:22;98956.59;;;5.41;85.10
20350;BME280;10332;50.208;18.988;2023-05-09T02:49:49;98960.25;;;5.36;85.46
20350;BME280;10332;50.208;18.988;2023-05-09T02:52:17;98962.16;;;5.29;85.84
20350;BME280;10332;50.208;18.988;2023-05-09T02:54:44;98960.34;;;5.33;85.84
20350;BME280;10332;50.208;18.988;2023-05-09T02:57:12;98955.38;;;5.27;85.78
20350;BME280;10332;50.208;18.988;2023-05-09T02:59:39;98958.78;;;5.27;86.06
20350;BME280;10332;50.208;18.988;2023-05-09T03:02:07;98962.28;;;5.26;86.24
20350;BME280;10332;50.208;18.988;2023-05-09T03:04:34;98962.41;;;5.23;86.33
20350;BME280;10332;50.208;18.988;2023-05-09T03:07:02;98962.34;;;5.25;86.15
20350;BME280;10332;50.208;18.988;2023-05-09T03:09:29;98959.03;;;5.20;86.37
20350;BME280;10332;50.208;18.988;2023-05-09T03:11:58;98958.66;;;5.32;85.98
20350;BME280;10332;50.208;18.988;2023-05-09T03:14:25;98955.41;;;5.25;85.97
20350;BME280;10332;50.208;18.988;2023-05-09T03:16:53;98956.22;;;5.27;86.08
20350;BME280;10332;50.208;18.988;2023-05-09T03:19:20;98965.06;;;5.47;85.28
20350;BME280;10332;50.208;18.988;2023-05-09T03:21:48;98963.16;;;5.52;85.02
20350;BME280;10332;50.208;18.988;2023-05-09T03:24:16;98970.03;;;5.53;85.34
20350;BME280;10332;50.208;18.988;2023-05-09T03:26:43;98969.38;;;5.46;85.58
20350;BME280;10332;50.208;18.988;2023-05-09T03:29:10;98962.44;;;5.48;85.54
20350;BME280;10332;50.208;18.988;2023-05-09T03:31:38;98970.34;;;5.44;85.74
20350;BME280;10332;50.208;18.988;2023-05-09T03:34:05;98959.25;;;5.40;86.03
20350;BME280;10332;50.208;18.988;2023-05-09T03:36:33;98956.91;;;5.32;86.53
20350;BME280;10332;50.208;18.988;2023-05-09T03:39:00;98956.16;;;5.29;86.94
20350;BME280;10332;50.208;18.988;2023-05-09T03:41:28;98954.75;;;5.19;87.67
20350;BME280;10332;50.208;18.988;2023-05-09T03:43:55;98952.88;;;5.24;87.74
20350;BME280;10332;50.208;18.988;2023-05-09T03:46:23;98954.38;;;5.31;87.89
20350;BME280;10332;50.208;18.988;2023-05-09T03:48:50;98959.25;;;5.40;87.54
20350;BME280;10332;50.208;18.988;2023-05-09T03:51:18;98953.13;;;5.43;87.73
20350;BME280;10332;50.208;18.988;2023-05-09T03:53:46;98954.56;;;5.51;87.23
20350;BME280;10332;50.208;18.988;2023-05-09T03:56:14;98952.81;;;5.52;87.60
20350;BME280;10332;50.208;18.988;2023-05-09T03:58:41;98945.78;;;5.55;87.55
20350;BME280;10332;50.208;18.988;2023-05-09T04:01:09;98953.28;;;5.63;87.18
20350;BME280;10332;50.208;18.988;2023-05-09T04:03:37;98960.78;;;5.70;87.36
20350;BME280;10332;50.208;18.988;2023-05-09T04:06:05;98962.09;;;5.82;86.92
20350;BME280;10332;50.208;18.988;2023-05-09T04:08:33;98966.38;;;5.83;86.87
20350;BME280;10332;50.208;18.988;2023-05-09T04:11:00;98965.88;;;5.98;86.52
20350;BME280;10332;50.208;18.988;2023-05-09T04:13:28;98960.44;;;6.06;86.36
20350;BME280;10332;50.208;18.988;2023-05-09T04:15:56;98961.84;;;6.15;86.41
20350;BME280;10332;50.208;18.988;2023-05-09T04:18:24;98958.22;;;6.19;86.30
20350;BME280;10332;50.208;18.988;2023-05-09T04:20:51;98966.78;;;6.22;86.21
20350;BME280;10332;50.208;18.988;2023-05-09T04:23:19;98963.91;;;6.30;85.95
20350;BME280;10332;50.208;18.988;2023-05-09T04:25:47;98965.47;;;6.34;86.06
20350;BME280;10332;50.208;18.988;2023-05-09T04:28:17;98967.59;;;6.46;85.71
20350;BME280;10332;50.208;18.988;2023-05-09T04:30:44;98964.06;;;6.49;85.46
20350;BME280;10332;50.208;18.988;2023-05-09T04:33:12;98966.41;;;6.55;85.51
20350;BME280;10332;50.208;18.988;2023-05-09T04:35:40;98959.47;;;6.55;85.49
20350;BME280;10332;50.208;18.988;2023-05-09T04:38:10;98965.22;;;6.64;85.33
20350;BME280;10332;50.208;18.988;2023-05-09T04:40:37;98958.31;;;6.63;85.59
20350;BME280;10332;50.208;18.988;2023-05-09T04:43:05;98950.44;;;6.66;85.45
20350;BME280;10332;50.208;18.988;2023-05-09T04:45:32;98946.09;;;6.66;85.27
20350;BME280;10332;50.208;18.988;2023-05-09T04:48:00;98947.31;;;6.79;85.11
20350;BME280;10332;50.208;18.988;2023-05-09T04:50:27;98945.69;;;6.77;85.11
20350;BME280;10332;50.208;18.988;2023-05-09T04:52:55;98935.72;;;6.88;85.27
20350;BME280;10332;50.208;18.988;2023-05-09T04:55:22;98940.06;;;6.88;85.54
20350;BME280;10332;50.208;18.988;2023-05-09T04:57:50;98940.09;;;7.08;85.19
20350;BME280;10332;50.208;18.988;2023-05-09T05:00:18;98942.41;;;7.16;84.63
20350;BME280;10332;50.208;18.988;2023-05-09T05:02:45;98940.16;;;7.28;84.44
20350;BME280;10332;50.208;18.988;2023-05-09T05:05:13;98937.56;;;7.49;83.81
20350;BME280;10332;50.208;18.988;2023-05-09T05:07:40;98934.06;;;7.50;83.21
20350;BME280;10332;50.208;18.988;2023-05-09T05:10:08;98938.56;;;7.66;83.23
20350;BME280;10332;50.208;18.988;2023-05-09T05:12:37;98935.50;;;7.77;82.81
20350;BME280;10332;50.208;18.988;2023-05-09T05:15:05;98927.09;;;7.71;82.57
20350;BME280;10332;50.208;18.988;2023-05-09T05:17:33;98930.03;;;7.83;82.22
20350;BME280;10332;50.208;18.988;2023-05-09T05:20:00;98927.38;;;7.85;82.21
20350;BME280;10332;50.208;18.988;2023-05-09T05:22:28;98928.56;;;7.96;81.69
20350;BME280;10332;50.208;18.988;2023-05-09T05:24:58;98934.16;;;7.87;82.15
20350;BME280;10332;50.208;18.988;2023-05-09T05:27:26;98936.72;;;8.08;81.50
20350;BME280;10332;50.208;18.988;2023-05-09T05:29:53;98933.09;;;8.12;81.64
20350;BME280;10332;50.208;18.988;2023-05-09T05:32:21;98940.00;;;8.32;80.79
20350;BME280;10332;50.208;18.988;2023-05-09T05:34:48;98930.59;;;8.29;81.03
20350;BME280;10332;50.208;18.988;2023-05-09T05:37:16;98940.69;;;8.37;80.55
20350;BME280;10332;50.208;18.988;2023-05-09T05:39:43;98930.69;;;8.46;79.87
20350;BME280;10332;50.208;18.988;2023-05-09T05:42:11;98934.97;;;8.66;79.32
20350;BME280;10332;50.208;18.988;2023-05-09T05:44:38;98942.78;;;8.66;78.86
20350;BME280;10332;50.208;18.988;2023-05-09T05:47:06;98936.81;;;8.64;79.21
20350;BME280;10332;50.208;18.988;2023-05-09T05:49:33;98934.25;;;8.81;78.86
20350;BME280;10332;50.208;18.988;2023-05-09T05:52:01;98932.34;;;8.85;78.62
20350;BME280;10332;50.208;18.988;2023-05-09T05:54:29;98933.03;;;8.89;78.50
20350;BME280;10332;50.208;18.988;2023-05-09T05:56:56;98932.38;;;9.02;77.90
20350;BME280;10332;50.208;18.988;2023-05-09T05:59:23;98920.91;;;9.24;77.11
20350;BME280;10332;50.208;18.988;2023-05-09T06:01:51;98935.00;;;9.20;76.91
20350;BME280;10332;50.208;18.988;2023-05-09T06:04:19;98930.19;;;9.29;77.09
20350;BME280;10332;50.208;18.988;2023-05-09T06:06:47;98910.72;;;9.36;77.06
20350;BME280;10332;50.208;18.988;2023-05-09T06:09:14;98930.38;;;9.44;76.14
20350;BME280;10332;50.208;18.988;2023-05-09T06:11:42;98929.03;;;9.70;75.25
20350;BME280;10332;50.208;18.988;2023-05-09T06:14:10;98925.88;;;9.80;75.24
20350;BME280;10332;50.208;18.988;2023-05-09T06:16:37;98902.78;;;9.90;74.06
20350;BME280;10332;50.208;18.988;2023-05-09T06:19:05;98932.34;;;10.06;73.78
20350;BME280;10332;50.208;18.988;2023-05-09T06:21:33;98899.13;;;10.10;71.97
20350;BME280;10332;50.208;18.988;2023-05-09T06:24:00;98929.22;;;10.15;71.37
20350;BME280;10332;50.208;18.988;2023-05-09T06:26:38;98919.28;;;10.23;71.01
20350;BME280;10332;50.208;18.988;2023-05-09T06:29:06;98911.75;;;10.17;71.13
20350;BME280;10332;50.208;18.988;2023-05-09T06:31:34;98909.19;;;10.33;70.82
20350;BME280;10332;50.208;18.988;2023-05-09T06:34:05;98910.88;;;10.34;70.27
20350;BME280;10332;50.208;18.988;2023-05-09T06:36:34;98923.34;;;10.45;70.00
20350;BME280;10332;50.208;18.988;2023-05-09T06:39:01;98912.91;;;10.45;69.09
20350;BME280;10332;50.208;18.988;2023-05-09T06:41:29;98906.25;;;10.55;68.77
20350;BME280;10332;50.208;18.988;2023-05-09T06:43:56;98900.75;;;10.60;68.84
20350;BME280;10332;50.208;18.988;2023-05-09T06:46:24;98887.81;;;10.74;67.23
20350;BME280;10332;50.208;18.988;2023-05-09T06:48:52;98904.53;;;10.86;66.94
20350;BME280;10332;50.208;18.988;2023-05-09T06:51:20;98904.28;;;11.06;66.52
20350;BME280;10332;50.208;18.988;2023-05-09T06:53:48;98888.91;;;11.16;66.48
20350;BME280;10332;50.208;18.988;2023-05-09T06:56:15;98903.66;;;11.47;65.00
20350;BME280;10332;50.208;18.988;2023-05-09T06:58:46;98904.13;;;11.53;64.36
20350;BME280;10332;50.208;18.988;2023-05-09T07:01:14;98899.28;;;11.61;63.36
20350;BME280;10332;50.208;18.988;2023-05-09T07:03:41;98894.75;;;11.79;62.67
20350;BME280;10332;50.208;18.988;2023-05-09T07:06:09;98884.97;;;11.97;62.19
20350;BME280;10332;50.208;18.988;2023-05-09T07:08:39;98893.47;;;12.15;61.34
20350;BME280;10332;50.208;18.988;2023-05-09T07:11:06;98881.50;;;11.97;60.66
20350;BME280;10332;50.208;18.988;2023-05-09T07:13:34;98882.97;;;12.29;60.58
20350;BME280;10332;50.208;18.988;2023-05-09T07:16:01;98880.75;;;12.23;59.50
20350;BME280;10332;50.208;18.988;2023-05-09T07:18:30;98879.50;;;12.43;59.34
20350;BME280;10332;50.208;18.988;2023-05-09T07:20:57;98876.19;;;12.54;59.08
20350;BME280;10332;50.208;18.988;2023-05-09T07:23:25;98876.97;;;12.41;59.17
20350;BME280;10332;50.208;18.988;2023-05-09T07:25:57;98874.13;;;12.59;57.75
20350;BME280;10332;50.208;18.988;2023-05-09T07:28:25;98878.81;;;12.54;58.06
20350;BME280;10332;50.208;18.988;2023-05-09T07:30:55;98869.66;;;12.46;57.74
20350;BME280;10332;50.208;18.988;2023-05-09T07:33:23;98879.66;;;12.54;58.17
20350;BME280;10332;50.208;18.988;2023-05-09T07:35:51;98872.69;;;12.67;58.00
20350;BME280;10332;50.208;18.988;2023-05-09T07:38:19;98874.88;;;12.88;57.99
20350;BME280;10332;50.208;18.988;2023-05-09T07:40:48;98871.25;;;13.03;57.71
20350;BME280;10332;50.208;18.988;2023-05-09T07:43:15;98854.59;;;13.17;57.02
20350;BME280;10332;50.208;18.988;2023-05-09T07:45:43;98851.72;;;13.47;55.97
20350;BME280;10332;50.208;18.988;2023-05-09T07:48:10;98844.78;;;13.20;56.04
20350;BME280;10332;50.208;18.988;2023-05-09T07:50:39;98843.63;;;13.24;55.39
20350;BME280;10332;50.208;18.988;2023-05-09T07:53:07;98837.16;;;13.43;55.14
20350;BME280;10332;50.208;18.988;2023-05-09T07:55:34;98854.06;;;13.51;55.41
20350;BME280;10332;50.208;18.988;2023-05-09T07:58:03;98856.16;;;13.72;54.26
20350;BME280;10332;50.208;18.988;2023-05-09T08:00:31;98836.72;;;13.74;52.46
20350;BME280;10332;50.208;18.988;2023-05-09T08:02:58;98857.81;;;13.73;52.30
20350;BME280;10332;50.208;18.988;2023-05-09T08:05:27;98843.97;;;13.96;52.15
20350;BME280;10332;50.208;18.988;2023-05-09T08:07:54;98837.88;;;13.83;52.57
20350;BME280;10332;50.208;18.988;2023-05-09T08:10:22;98844.69;;;13.98;51.98
20350;BME280;10332;50.208;18.988;2023-05-09T08:12:50;98850.84;;;14.10;51.33
20350;BME280;10332;50.208;18.988;2023-05-09T08:15:17;98842.78;;;14.13;50.90
20350;BME280;10332;50.208;18.988;2023-05-09T08:17:47;98838.69;;;14.09;50.89
20350;BME280;10332;50.208;18.988;2023-05-09T08:20:15;98837.06;;;14.32;50.84
20350;BME280;10332;50.208;18.988;2023-05-09T08:22:43;98822.25;;;14.31;50.49
20350;BME280;10332;50.208;18.988;2023-05-09T08:25:13;98833.75;;;14.54;50.38
20350;BME280;10332;50.208;18.988;2023-05-09T08:27:44;98839.72;;;14.56;49.76
20350;BME280;10332;50.208;18.988;2023-05-09T08:30:12;98825.97;;;14.52;49.53
20350;BME280;10332;50.208;18.988;2023-05-09T08:32:40;98833.31;;;14.60;49.48
20350;BME280;10332;50.208;18.988;2023-05-09T08:35:08;98829.38;;;14.89;49.58
20350;BME280;10332;50.208;18.988;2023-05-09T08:37:35;98829.69;;;15.09;50.02
20350;BME280;10332;50.208;18.988;2023-05-09T08:40:04;98836.94;;;15.29;49.20
20350;BME280;10332;50.208;18.988;2023-05-09T08:42:36;98829.00;;;15.18;47.92
20350;BME280;10332;50.208;18.988;2023-05-09T08:45:12;98816.91;;;15.15;48.13
20350;BME280;10332;50.208;18.988;2023-05-09T08:47:44;98821.03;;;15.30;48.58
20350;BME280;10332;50.208;18.988;2023-05-09T08:50:12;98817.88;;;15.60;47.88
20350;BME280;10332;50.208;18.988;2023-05-09T08:52:42;98830.34;;;15.92;47.66
20350;BME280;10332;50.208;18.988;2023-05-09T08:55:09;98819.34;;;16.09;46.86
20350;BME280;10332;50.208;18.988;2023-05-09T08:57:38;98819.94;;;16.56;45.62
20350;BME280;10332;50.208;18.988;2023-05-09T09:00:09;98820.63;;;16.81;45.92
20350;BME280;10332;50.208;18.988;2023-05-09T09:02:40;98827.53;;;16.93;45.25
20350;BME280;10332;50.208;18.988;2023-05-09T09:05:11;98826.44;;;16.95;45.51
20350;BME280;10332;50.208;18.988;2023-05-09T09:07:59;98816.53;;;17.50;44.87
20350;BME280;10332;50.208;18.988;2023-05-09T09:10:31;98807.97;;;17.58;43.97
20350;BME280;10332;50.208;18.988;2023-05-09T09:13:01;98798.50;;;17.55;44.15
20350;BME280;10332;50.208;18.988;2023-05-09T09:15:35;98820.75;;;17.83;43.33
20350;BME280;10332;50.208;18.988;2023-05-09T09:18:08;98825.81;;;18.36;43.20
20350;BME280;10332;50.208;18.988;2023-05-09T09:20:47;98812.00;;;18.73;41.19
20350;BME280;10332;50.208;18.988;2023-05-09T09:23:19;98822.75;;;20.86;39.03
20350;BME280;10332;50.208;18.988;2023-05-09T09:26:02;98807.50;;;27.41;28.80
20350;BME280;10332;50.208;18.988;2023-05-09T09:28:33;98830.34;;;33.31;22.63
20350;BME280;10332;50.208;18.988;2023-05-09T09:31:01;98827.13;;;32.51;21.94
20350;BME280;10332;50.208;18.988;2023-05-09T09:33:28;98819.25;;;36.56;19.99
20350;BME280;10332;50.208;18.988;2023-05-09T09:35:56;98830.28;;;42.11;16.50
20350;BME280;10332;50.208;18.988;2023-05-09T09:38:24;98838.16;;;33.39;19.86
20350;BME280;10332;50.208;18.988;2023-05-09T09:40:55;98824.00;;;35.83;18.02
20350;BME280;10332;50.208;18.988;2023-05-09T09:43:30;98801.03;;;40.21;15.00
20350;BME280;10332;50.208;18.988;2023-05-09T09:46:02;98822.38;;;41.52;14.45
20350;BME280;10332;50.208;18.988;2023-05-09T09:48:33;98823.22;;;41.81;14.90
20350;BME280;10332;50.208;18.988;2023-05-09T09:51:09;98819.19;;;43.53;13.02
20350;BME280;10332;50.208;18.988;2023-05-09T09:53:42;98810.19;;;43.15;12.25
20350;BME280;10332;50.208;18.988;2023-05-09T09:56:10;98796.59;;;44.11;12.36
20350;BME280;10332;50.208;18.988;2023-05-09T09:58:38;98805.84;;;39.03;14.74
20350;BME280;10332;50.208;18.988;2023-05-09T10:01:11;98790.34;;;41.76;13.50
20350;BME280;10332;50.208;18.988;2023-05-09T10:03:45;98811.25;;;44.48;12.02
20350;BME280;10332;50.208;18.988;2023-05-09T10:06:15;98806.34;;;46.93;11.04
20350;BME280;10332;50.208;18.988;2023-05-09T10:08:44;98807.63;;;46.04;11.17
20350;BME280;10332;50.208;18.988;2023-05-09T10:11:15;98797.34;;;46.62;10.37
20350;BME280;10332;50.208;18.988;2023-05-09T10:13:44;98788.44;;;43.00;12.57
20350;BME280;10332;50.208;18.988;2023-05-09T10:16:13;98773.59;;;35.76;16.30
20350;BME280;10332;50.208;18.988;2023-05-09T10:18:41;98781.16;;;37.90;15.36
20350;BME280;10332;50.208;18.988;2023-05-09T10:21:13;98746.03;;;40.17;13.40
20350;BME280;10332;50.208;18.988;2023-05-09T10:23:47;98783.09;;;45.10;12.00
20350;BME280;10332;50.208;18.988;2023-05-09T10:26:23;98768.09;;;46.70;10.39
20350;BME280;10332;50.208;18.988;2023-05-09T10:29:00;98787.19;;;49.70;9.39
20350;BME280;10332;50.208;18.988;2023-05-09T10:31:38;98758.44;;;42.66;11.69
20350;BME280;10332;50.208;18.988;2023-05-09T10:34:10;98753.00;;;44.99;10.83
20350;BME280;10332;50.208;18.988;2023-05-09T10:36:39;98747.03;;;43.70;11.32
20350;BME280;10332;50.208;18.988;2023-05-09T10:39:07;98755.47;;;37.81;14.38
20350;BME280;10332;50.208;18.988;2023-05-09T10:41:35;98759.31;;;38.52;14.26
20350;BME280;10332;50.208;18.988;2023-05-09T10:44:05;98741.38;;;41.88;12.18
20350;BME280;10332;50.208;18.988;2023-05-09T10:46:34;98754.19;;;39.27;13.70
20350;BME280;10332;50.208;18.988;2023-05-09T10:49:02;98741.06;;;36.03;16.54
20350;BME280;10332;50.208;18.988;2023-05-09T10:51:31;98730.56;;;33.46;17.97
20350;BME280;10332;50.208;18.988;2023-05-09T10:53:59;98731.91;;;32.00;18.99
20350;BME280;10332;50.208;18.988;2023-05-09T10:56:34;98729.81;;;31.41;19.66
20350;BME280;10332;50.208;18.988;2023-05-09T11:01:59;98706.28;;;27.29;22.47
20350;BME280;10332;50.208;18.988;2023-05-09T11:04:30;98723.81;;;26.54;23.14
20350;BME280;10332;50.208;18.988;2023-05-09T11:06:59;98706.53;;;26.06;24.26
20350;BME280;10332;50.208;18.988;2023-05-09T11:09:34;98709.63;;;25.58;25.08
20350;BME280;10332;50.208;18.988;2023-05-09T11:22:37;98695.25;;;22.06;29.80
20350;BME280;10332;50.208;18.988;2023-05-09T11:25:09;98702.41;;;22.06;29.91
20350;BME280;10332;50.208;18.988;2023-05-09T11:27:48;98692.31;;;21.67;29.92
20350;BME280;10332;50.208;18.988;2023-05-09T11:30:18;98694.06;;;20.98;30.71
20350;BME280;10332;50.208;18.988;2023-05-09T11:32:52;98685.94;;;21.00;30.61
20350;BME280;10332;50.208;18.988;2023-05-09T11:35:25;98685.66;;;21.03;31.08
20350;BME280;10332;50.208;18.988;2023-05-09T11:38:02;98680.31;;;21.29;30.65
20350;BME280;10332;50.208;18.988;2023-05-09T11:40:33;98665.00;;;21.23;31.34
20350;BME280;10332;50.208;18.988;2023-05-09T11:43:01;98669.13;;;21.17;30.88
20350;BME280;10332;50.208;18.988;2023-05-09T11:45:31;98666.56;;;21.68;31.64
20350;BME280;10332;50.208;18.988;2023-05-09T11:47:59;98661.16;;;21.17;31.91
20350;BME280;10332;50.208;18.988;2023-05-09T11:50:28;98655.88;;;21.51;31.61
20350;BME280;10332;50.208;18.988;2023-05-09T11:52:56;98652.44;;;21.67;31.60
20350;BME280;10332;50.208;18.988;2023-05-09T11:55:25;98644.50;;;21.75;31.10
20350;BME280;10332;50.208;18.988;2023-05-09T11:57:57;98644.50;;;21.75;31.59
20350;BME280;10332;50.208;18.988;2023-05-09T12:00:25;98643.69;;;21.91;30.59
20350;BME280;10332;50.208;18.988;2023-05-09T12:02:53;98644.19;;;21.87;30.26
20350;BME280;10332;50.208;18.988;2023-05-09T12:05:22;98638.84;;;21.78;30.43
20350;BME280;10332;50.208;18.988;2023-05-09T12:07:50;98635.69;;;21.75;30.51
20350;BME280;10332;50.208;18.988;2023-05-09T12:10:20;98639.00;;;21.69;30.74
20350;BME280;10332;50.208;18.988;2023-05-09T12:12:52;98634.31;;;21.63;31.04
20350;BME280;10332;50.208;18.988;2023-05-09T12:15:22;98635.47;;;21.60;31.03
20350;BME280;10332;50.208;18.988;2023-05-09T12:18:05;98630.09;;;21.44;31.51
20350;BME280;10332;50.208;18.988;2023-05-09T12:20:48;98625.34;;;21.64;31.66
20350;BME280;10332;50.208;18.988;2023-05-09T12:23:19;98621.91;;;21.37;31.72
20350;BME280;10332;50.208;18.988;2023-05-09T12:25:48;98626.91;;;21.32;31.12
20350;BME280;10332;50.208;18.988;2023-05-09T12:28:22;98619.16;;;21.55;32.25
20350;BME280;10332;50.208;18.988;2023-05-09T12:30:51;98620.88;;;21.72;31.79
20350;BME280;10332;50.208;18.988;2023-05-09T12:33:21;98613.38;;;21.60;31.57
20350;BME280;10332;50.208;18.988;2023-05-09T12:36:06;98608.41;;;21.73;31.47
20350;BME280;10332;50.208;18.988;2023-05-09T12:38:34;98604.47;;;21.85;31.17
20350;BME280;10332;50.208;18.988;2023-05-09T12:41:09;98610.88;;;21.58;31.33
20350;BME280;10332;50.208;18.988;2023-05-09T12:43:57;98600.66;;;21.88;30.92
20350;BME280;10332;50.208;18.988;2023-05-09T12:46:24;98604.16;;;21.96;30.64
20350;BME280;10332;50.208;18.988;2023-05-09T12:48:53;98589.31;;;21.69;30.83
20350;BME280;10332;50.208;18.988;2023-05-09T12:51:21;98596.97;;;20.96;31.25
20350;BME280;10332;50.208;18.988;2023-05-09T12:53:49;98590.53;;;21.33;32.15
20350;BME280;10332;50.208;18.988;2023-05-09T12:56:20;98594.84;;;21.34;31.29
20350;BME280;10332;50.208;18.988;2023-05-09T12:58:54;98591.25;;;21.43;32.22
20350;BME280;10332;50.208;18.988;2023-05-09T13:01:28;98584.31;;;21.58;31.23
20350;BME280;10332;50.208;18.988;2023-05-09T13:04:05;98576.53;;;21.73;32.44
20350;BME280;10332;50.208;18.988;2023-05-09T13:06:34;98572.44;;;22.03;30.71
20350;BME280;10332;50.208;18.988;2023-05-09T13:09:03;98566.06;;;21.79;31.01
20350;BME280;10332;50.208;18.988;2023-05-09T13:11:34;98560.03;;;21.53;31.25
20350;BME280;10332;50.208;18.988;2023-05-09T13:14:04;98565.19;;;20.78;32.18
20350;BME280;10332;50.208;18.988;2023-05-09T13:16:31;98570.31;;;21.06;31.70
20350;BME280;10332;50.208;18.988;2023-05-09T13:18:59;98551.03;;;20.69;31.72
20350;BME280;10332;50.208;18.988;2023-05-09T13:21:27;98551.34;;;20.66;31.97
20350;BME280;10332;50.208;18.988;2023-05-09T13:23:55;98543.31;;;20.32;32.29
20350;BME280;10332;50.208;18.988;2023-05-09T13:26:22;98546.25;;;20.47;32.51